Time;durP1;ratioP1;P1;durP2;ratioP2;P2;SDS_P1;SDS_P2;PMS_P1;PMS_P2;Temp;Humidity;BMP_temperature;BMP_pressure;BME280_temperature;BME280_humidity;BME280_pressure;Samples;Min_cycle;Max_cycle;Signal;HPM_P1;HPM_P2
2022/03/14 00:00:19;;;;;;;;;;;;;;;21.68;41.10;101484.06;5117705;28;19946;-86
2022/03/14 00:02:45;;;;;;;;;;;;;;;21.68;41.02;101486.81;5105219;28;19928;-83
2022/03/14 00:05:14;;;;;;;;;;;;;;;21.68;41.13;101486.81;5103479;28;19986;-84
2022/03/14 00:07:41;;;;;;;;;;;;;;;21.66;41.04;101487.13;5108958;28;20010;-83
2022/03/14 00:10:07;;;;;;;;;;;;;;;21.67;40.99;101490.66;5101718;28;19931;-83
2022/03/14 00:12:32;;;;;;;;;;;;;;;21.68;40.99;101495.06;5093396;28;19927;-83
2022/03/14 00:14:59;;;;;;;;;;;;;;;21.67;40.94;101499.75;5093310;28;19946;-83
2022/03/14 00:17:25;;;;;;;;;;;;;;;21.67;40.84;101502.50;5091228;28;20018;-83
2022/03/14 00:19:51;;;;;;;;;;;;;;;21.67;40.87;101499.75;5074096;28;19954;-83
2022/03/14 00:22:19;;;;;;;;;;;;;;;21.67;40.77;101501.66;5089856;28;19945;-83
2022/03/14 00:24:45;;;;;;;;;;;;;;;21.66;40.96;101498.13;5078453;28;19946;-83
2022/03/14 00:27:10;;;;;;;;;;;;;;;21.67;40.97;101504.41;5091952;28;19924;-83
2022/03/14 00:29:35;;;;;;;;;;;;;;;21.66;41.15;101509.09;5094613;28;19947;-82
2022/03/14 00:32:01;;;;;;;;;;;;;;;21.65;40.93;101515.75;5092075;28;19931;-83
2022/03/14 00:34:27;;;;;;;;;;;;;;;21.67;40.93;101515.41;5092102;28;20000;-83
2022/03/14 00:36:52;;;;;;;;;;;;;;;21.67;40.84;101520.91;5096832;28;19928;-83
2022/03/14 00:39:18;;;;;;;;;;;;;;;21.66;40.63;101524.78;5088380;28;19946;-83
2022/03/14 00:41:43;;;;;;;;;;;;;;;21.67;41.04;101518.16;5090243;28;20011;-83
2022/03/14 00:44:10;;;;;;;;;;;;;;;21.66;40.99;101524.78;5088977;28;19969;-83
2022/03/14 00:46:37;;;;;;;;;;;;;;;21.66;40.88;101524.78;5103512;28;19950;-82
2022/03/14 00:49:02;;;;;;;;;;;;;;;21.66;40.62;101527.53;5093331;28;20400;-83
2022/03/14 00:51:28;;;;;;;;;;;;;;;21.67;40.59;101531.91;5091856;28;19969;-83
2022/03/14 00:53:53;;;;;;;;;;;;;;;21.66;40.68;101530.28;5089035;28;20385;-83
2022/03/14 00:56:20;;;;;;;;;;;;;;;21.65;40.84;101534.97;5090154;28;20298;-82
2022/03/14 00:58:45;;;;;;;;;;;;;;;21.66;40.77;101536.59;5088836;28;19984;-82
2022/03/14 01:01:10;;;;;;;;;;;;;;;21.65;40.76;101534.97;5086583;28;19924;-83
2022/03/14 01:03:36;;;;;;;;;;;;;;;21.66;40.58;101546.78;5088640;28;20300;-83
2022/03/14 01:06:01;;;;;;;;;;;;;;;21.67;40.60;101540.16;5089573;28;19945;-82
2022/03/14 01:08:26;;;;;;;;;;;;;;;21.66;40.90;101533.84;5090250;28;19927;-82
2022/03/14 01:10:52;;;;;;;;;;;;;;;21.67;40.72;101545.66;5093965;28;19933;-82
2022/03/14 01:13:18;;;;;;;;;;;;;;;21.66;40.77;101544.84;5102495;28;20025;-83
2022/03/14 01:15:44;;;;;;;;;;;;;;;21.66;40.83;101550.34;5084837;28;20043;-83
2022/03/14 01:18:09;;;;;;;;;;;;;;;21.66;40.43;101552.28;5088967;28;20045;-83
2022/03/14 01:20:34;;;;;;;;;;;;;;;21.66;40.73;101557.78;5089484;28;19935;-83
2022/03/14 01:23:00;;;;;;;;;;;;;;;21.66;40.47;101557.78;5107375;28;20949;-82
2022/03/14 01:25:25;;;;;;;;;;;;;;;21.66;40.47;101563.28;5072000;28;19924;-83
2022/03/14 01:27:51;;;;;;;;;;;;;;;21.66;40.61;101566.84;5086405;28;19972;-84
2022/03/14 01:30:17;;;;;;;;;;;;;;;21.66;40.46;101572.34;5105169;28;19937;-82
2022/03/14 01:32:42;;;;;;;;;;;;;;;21.65;40.37;101581.72;5090667;28;19920;-82
2022/03/14 01:35:08;;;;;;;;;;;;;;;21.65;40.73;101587.22;5091866;28;19968;-83
2022/03/14 01:37:33;;;;;;;;;;;;;;;21.66;40.65;101586.09;5090949;28;20011;-83
2022/03/14 01:39:58;;;;;;;;;;;;;;;21.66;40.24;101585.28;5091346;28;19958;-83
2022/03/14 01:42:24;;;;;;;;;;;;;;;21.65;40.47;101592.72;5085811;28;20420;-82
2022/03/14 01:44:49;;;;;;;;;;;;;;;21.65;40.65;101587.22;5090238;28;20016;-82
2022/03/14 01:47:14;;;;;;;;;;;;;;;21.66;40.64;101597.09;5087360;28;19954;-82
2022/03/14 01:49:41;;;;;;;;;;;;;;;21.64;40.59;101588.31;5085337;28;19954;-83
2022/03/14 01:52:07;;;;;;;;;;;;;;;21.65;40.33;101600.97;5087344;28;20367;-83
2022/03/14 01:54:33;;;;;;;;;;;;;;;21.65;40.63;101602.91;5092968;28;19961;-83
2022/03/14 01:56:58;;;;;;;;;;;;;;;21.65;40.63;101611.97;5085507;28;19981;-82
2022/03/14 01:59:24;;;;;;;;;;;;;;;21.65;40.50;101606.47;5089286;28;20198;-83
2022/03/14 02:01:49;;;;;;;;;;;;;;;21.65;40.50;101613.91;5088229;28;19946;-83
2022/03/14 02:04:17;;;;;;;;;;;;;;;21.64;40.43;101615.81;5085202;28;19925;-83
2022/03/14 02:06:44;;;;;;;;;;;;;;;21.65;40.47;101614.72;5091651;28;19942;-82
2022/03/14 02:09:09;;;;;;;;;;;;;;;21.65;40.56;101614.72;5087975;28;19946;-83
2022/03/14 02:11:34;;;;;;;;;;;;;;;21.65;40.34;101620.22;5090530;28;19928;-83
2022/03/14 02:14:00;;;;;;;;;;;;;;;21.65;40.34;101622.97;5087628;28;19967;-83
2022/03/14 02:16:25;;;;;;;;;;;;;;;21.65;40.28;101624.91;5090450;28;19924;-83
2022/03/14 02:18:51;;;;;;;;;;;;;;;21.64;40.29;101628.75;5089969;28;19963;-82
2022/03/14 02:21:19;;;;;;;;;;;;;;;21.65;40.23;101627.66;5089919;28;19989;-83
2022/03/14 02:23:44;;;;;;;;;;;;;;;21.65;40.23;101624.91;5091603;28;19942;-82
2022/03/14 02:26:09;;;;;;;;;;;;;;;21.64;40.16;101632.31;5103971;28;20286;-83
2022/03/14 02:28:35;;;;;;;;;;;;;;;21.64;40.54;101632.31;5092231;28;19960;-83
2022/03/14 02:31:03;;;;;;;;;;;;;;;21.65;40.23;101633.16;5088562;28;20011;-83
2022/03/14 02:33:32;;;;;;;;;;;;;;;21.64;40.55;101635.06;5088819;28;19928;-83
2022/03/14 02:35:58;;;;;;;;;;;;;;;21.64;40.16;101629.56;5087953;28;19931;-83
2022/03/14 02:38:23;;;;;;;;;;;;;;;21.65;40.52;101641.41;5088733;28;20253;-82
2022/03/14 02:40:48;;;;;;;;;;;;;;;21.65;40.56;101641.41;5090026;28;20004;-83
2022/03/14 02:43:22;;;;;;;;;;;;;;;21.64;40.23;101634.25;5087544;28;20393;-82
2022/03/14 02:45:48;;;;;;;;;;;;;;;21.64;40.12;101637.00;5085396;28;19939;-83
2022/03/14 02:48:14;;;;;;;;;;;;;;;21.64;40.51;101639.75;5087814;28;19925;-82
2022/03/14 02:50:42;;;;;;;;;;;;;;;21.65;40.15;101644.16;5101295;28;20041;-83
2022/03/14 02:53:08;;;;;;;;;;;;;;;21.65;40.08;101655.16;5091741;28;19941;-83
2022/03/14 02:55:34;;;;;;;;;;;;;;;21.64;40.33;101662.56;5098247;28;19925;-83
2022/03/14 02:57:59;;;;;;;;;;;;;;;21.63;40.35;101674.69;5088245;28;19931;-83
2022/03/14 03:00:25;;;;;;;;;;;;;;;21.63;40.40;101669.19;5089212;28;19932;-82
2022/03/14 03:02:51;;;;;;;;;;;;;;;21.63;40.00;101680.19;5070334;28;19928;-83
2022/03/14 03:05:16;;;;;;;;;;;;;;;21.64;40.08;101687.28;5091061;28;19920;-91
2022/03/14 03:07:45;;;;;;;;;;;;;;;21.64;40.25;101692.00;5095075;28;20266;-91
2022/03/14 03:10:11;;;;;;;;;;;;;;;21.64;40.22;101700.22;5094133;28;19920;-92
2022/03/14 03:12:40;;;;;;;;;;;;;;;21.64;40.27;101708.47;5093463;28;20305;-91
2022/03/14 03:15:06;;;;;;;;;;;;;;;21.63;40.19;101706.84;5093742;28;19938;-90
2022/03/14 03:17:31;;;;;;;;;;;;;;;21.64;40.22;101713.97;5093831;28;20363;-90
2022/03/14 03:19:56;;;;;;;;;;;;;;;21.64;40.33;101722.22;5110389;28;19928;-92
2022/03/14 03:22:22;;;;;;;;;;;;;;;21.64;40.04;101730.47;5094331;28;19934;-91
2022/03/14 03:24:47;;;;;;;;;;;;;;;21.63;40.47;101731.59;5094387;28;20368;-92
2022/03/14 03:27:14;;;;;;;;;;;;;;;21.63;40.05;101729.66;5093891;28;20007;-91
2022/03/14 03:29:40;;;;;;;;;;;;;;;21.62;40.04;101733.53;5094562;28;19973;-92
2022/03/14 03:32:05;;;;;;;;;;;;;;;21.63;40.29;101746.16;5093697;28;19939;-92
2022/03/14 03:34:31;;;;;;;;;;;;;;;21.61;40.06;101749.19;5093828;28;19924;-91
2022/03/14 03:36:56;;;;;;;;;;;;;;;21.62;40.12;101752.78;5093103;28;19927;-92
2022/03/14 03:39:21;;;;;;;;;;;;;;;21.63;40.03;101751.66;5094447;28;20040;-90
2022/03/14 03:41:47;;;;;;;;;;;;;;;21.62;40.16;101763.78;5092833;28;19989;-92
2022/03/14 03:44:12;;;;;;;;;;;;;;;21.63;40.16;101772.84;5093448;28;19946;-92
2022/03/14 03:46:37;;;;;;;;;;;;;;;21.63;40.24;101781.09;5110663;28;19946;-91
2022/03/14 03:49:03;;;;;;;;;;;;;;;21.63;39.97;101794.84;5097389;28;19916;-92
2022/03/14 03:51:28;;;;;;;;;;;;;;;21.61;40.24;101801.44;5096898;28;20352;-92
2022/03/14 03:53:53;;;;;;;;;;;;;;;21.60;40.14;101808.06;5096902;28;20399;-91
2022/03/14 03:56:19;;;;;;;;;;;;;;;21.61;40.18;101817.13;5097949;28;19995;-92
2022/03/14 03:58:44;;;;;;;;;;;;;;;21.61;40.22;101817.94;5114315;28;19934;-92
2022/03/14 04:01:10;;;;;;;;;;;;;;;21.61;39.92;101817.13;5097021;28;19967;-91
2022/03/14 04:03:35;;;;;;;;;;;;;;;21.60;40.20;101829.22;5096386;28;20371;-91
2022/03/14 04:06:01;;;;;;;;;;;;;;;21.60;40.11;101827.31;5096808;28;20054;-92
2022/03/14 04:08:29;;;;;;;;;;;;;;;21.61;39.86;101830.88;5096528;28;19946;-90
2022/03/14 04:10:55;;;;;;;;;;;;;;;21.60;39.87;101838.28;5097884;28;19916;-92
2022/03/14 04:13:24;;;;;;;;;;;;;;;21.59;39.98;101847.63;5096487;28;19961;-91
2022/03/14 04:15:52;;;;;;;;;;;;;;;21.61;39.97;101852.84;5113355;28;20052;-92
2022/03/14 04:18:25;;;;;;;;;;;;;;;21.59;40.07;101842.13;5096872;28;20002;-91
2022/03/14 04:20:51;;;;;;;;;;;;;;;21.59;40.13;101844.88;5096330;28;19920;-91
2022/03/14 04:23:17;;;;;;;;;;;;;;;21.60;39.99;101846.53;5096666;28;20364;-90
2022/03/14 04:25:43;;;;;;;;;;;;;;;21.60;40.06;101848.47;5096008;28;19939;-91
2022/03/14 04:28:09;;;;;;;;;;;;;;;21.60;39.99;101851.22;5097522;28;19920;-90
2022/03/14 04:30:34;;;;;;;;;;;;;;;21.59;40.04;101861.38;5096307;28;20049;-87
2022/03/14 04:33:00;;;;;;;;;;;;;;;21.59;39.62;101855.88;5095708;28;19920;-90
2022/03/14 04:35:26;;;;;;;;;;;;;;;21.59;39.71;101858.63;5097140;28;20358;-91
2022/03/14 04:37:51;;;;;;;;;;;;;;;21.59;39.97;101863.31;5095935;28;19955;-92
2022/03/14 04:40:16;;;;;;;;;;;;;;;21.59;40.07;101872.38;5096309;28;20033;-91
2022/03/14 04:42:41;;;;;;;;;;;;;;;21.59;39.97;101868.81;5096988;28;19938;-91
2022/03/14 04:45:07;;;;;;;;;;;;;;;21.58;39.72;101873.50;5096263;28;20359;-91
2022/03/14 04:47:33;;;;;;;;;;;;;;;21.58;39.99;101875.44;5095763;28;19962;-93
2022/03/14 04:49:58;;;;;;;;;;;;;;;21.58;39.96;101886.44;5096902;28;19946;-91
2022/03/14 04:52:24;;;;;;;;;;;;;;;21.58;39.77;101889.19;5095786;28;19984;-91
2022/03/14 04:54:49;;;;;;;;;;;;;;;21.57;39.99;101896.63;5095943;28;19916;-88
2022/03/14 04:57:15;;;;;;;;;;;;;;;21.58;39.70;101903.75;5112543;28;20535;-91
2022/03/14 04:59:40;;;;;;;;;;;;;;;21.57;39.92;101915.03;5096185;28;19956;-92
2022/03/14 05:02:06;;;;;;;;;;;;;;;21.57;39.75;101913.13;5095744;28;20515;-93
2022/03/14 05:04:32;;;;;;;;;;;;;;;21.57;39.71;101915.88;5095603;28;20397;-92
2022/03/14 05:06:57;;;;;;;;;;;;;;;21.57;39.69;101924.13;5096778;28;20375;-91
2022/03/14 05:09:23;;;;;;;;;;;;;;;21.56;39.84;101927.94;5096420;28;19927;-91
2022/03/14 05:11:48;;;;;;;;;;;;;;;21.57;39.88;101928.78;5112759;28;19950;-90
2022/03/14 05:14:16;;;;;;;;;;;;;;;21.56;39.90;101932.63;5095303;28;19968;-92
2022/03/14 05:16:41;;;;;;;;;;;;;;;21.56;39.75;101938.13;5112102;28;19986;-92
2022/03/14 05:19:06;;;;;;;;;;;;;;;21.55;39.56;101937.31;5095102;28;20409;-92
2022/03/14 05:21:33;;;;;;;;;;;;;;;21.56;39.86;101938.94;5112671;28;19931;-89
2022/03/14 05:23:58;;;;;;;;;;;;;;;21.55;39.94;101948.31;5111754;28;20274;-90
2022/03/14 05:26:24;;;;;;;;;;;;;;;21.56;39.83;101949.94;5112031;28;19920;-92
2022/03/14 05:28:49;;;;;;;;;;;;;;;21.54;39.77;101946.66;5096364;28;19955;-89
2022/03/14 05:31:15;;;;;;;;;;;;;;;21.55;39.63;101939.25;5094937;28;19978;-91
2022/03/14 05:33:41;;;;;;;;;;;;;;;21.55;39.62;101951.06;5095123;28;19949;-92
2022/03/14 05:36:06;;;;;;;;;;;;;;;21.55;39.68;101948.31;5111853;28;20000;-92
2022/03/14 05:38:32;;;;;;;;;;;;;;;21.54;39.74;101949.41;5095417;28;19945;-91
2022/03/14 05:40:57;;;;;;;;;;;;;;;21.55;39.74;101953.00;5095892;28;19966;-90
2022/03/14 05:43:24;;;;;;;;;;;;;;;21.54;39.76;101960.41;5094907;28;19920;-92
2022/03/14 05:45:50;;;;;;;;;;;;;;;21.54;39.83;101971.41;5111563;28;19937;-89
2022/03/14 05:48:15;;;;;;;;;;;;;;;21.54;39.78;101970.59;5095161;28;19924;-92
2022/03/14 05:50:40;;;;;;;;;;;;;;;21.54;39.61;101973.34;5096360;28;19950;-90
2022/03/14 05:53:05;;;;;;;;;;;;;;;21.53;39.56;101983.53;5094904;28;19923;-91
2022/03/14 05:55:31;;;;;;;;;;;;;;;21.54;39.78;101981.59;5094499;28;19924;-92
2022/03/14 05:57:56;;;;;;;;;;;;;;;21.53;39.79;101978.03;5094680;28;20326;-91
2022/03/14 06:00:25;;;;;;;;;;;;;;;21.53;39.90;101990.94;5095166;28;19924;-92
2022/03/14 06:02:51;;;;;;;;;;;;;;;21.53;39.63;102000.00;5095426;28;20008;-89
2022/03/14 06:05:21;;;;;;;;;;;;;;;21.53;39.84;102008.25;5095557;28;19937;-89
2022/03/14 06:07:46;;;;;;;;;;;;;;;21.53;39.81;102012.94;5095312;28;19916;-91
2022/03/14 06:10:13;;;;;;;;;;;;;;;21.53;39.62;102011.00;5094806;28;19945;-91
2022/03/14 06:12:38;;;;;;;;;;;;;;;21.53;39.66;102012.94;5111588;28;20241;-90
2022/03/14 06:15:04;;;;;;;;;;;;;;;21.53;39.87;102018.44;5094150;28;19920;-92
2022/03/14 06:17:29;;;;;;;;;;;;;;;21.53;39.47;102023.94;5095122;28;19945;-91
2022/03/14 06:19:55;;;;;;;;;;;;;;;21.53;39.60;102022.00;5094597;28;19920;-91
2022/03/14 06:22:23;;;;;;;;;;;;;;;21.53;39.68;102029.44;5094912;28;20059;-90
2022/03/14 06:24:50;;;;;;;;;;;;;;;21.53;39.72;102035.75;5094922;28;20360;-92
2022/03/14 06:27:17;;;;;;;;;;;;;;;21.53;39.73;102043.19;5110720;28;19934;-91
2022/03/14 06:29:42;;;;;;;;;;;;;;;21.53;39.64;102048.69;5094539;28;19916;-90
2022/03/14 06:32:08;;;;;;;;;;;;;;;21.53;39.75;102055.00;5110108;28;19920;-88
2022/03/14 06:34:33;;;;;;;;;;;;;;;21.53;39.46;102055.00;5093826;28;19935;-92
2022/03/14 06:36:58;;;;;;;;;;;;;;;21.54;39.77;102069.56;5093747;28;20316;-90
2022/03/14 06:39:24;;;;;;;;;;;;;;;21.54;39.51;102073.13;5093758;28;20011;-89
2022/03/14 06:41:50;;;;;;;;;;;;;;;21.54;39.59;102066.81;5093580;28;19921;-91
2022/03/14 06:44:17;;;;;;;;;;;;;;;21.55;39.72;102065.72;5093327;28;19950;-90
2022/03/14 06:46:42;;;;;;;;;;;;;;;21.54;39.72;102072.31;5094339;28;20381;-90
2022/03/14 06:49:08;;;;;;;;;;;;;;;21.54;39.61;102067.63;5093243;28;19916;-90
2022/03/14 06:51:33;;;;;;;;;;;;;;;21.55;39.72;102068.47;5093399;28;19927;-88
2022/03/14 06:53:58;;;;;;;;;;;;;;;21.56;39.76;102067.34;5093668;28;19920;-90
2022/03/14 06:56:24;;;;;;;;;;;;;;;21.56;39.58;102070.91;5093063;28;20023;-89
2022/03/14 06:58:49;;;;;;;;;;;;;;;21.56;39.89;102072.84;5094219;28;19928;-86
2022/03/14 07:01:15;;;;;;;;;;;;;;;21.56;40.03;102073.66;5091999;28;19924;-87
2022/03/14 07:03:40;;;;;;;;;;;;;;;21.58;40.11;102076.97;5109460;28;20404;-88
2022/03/14 07:06:05;;;;;;;;;;;;;;;21.57;40.08;102078.09;5109442;28;20364;-88
2022/03/14 07:08:30;;;;;;;;;;;;;;;21.58;39.93;102082.47;5109681;28;19960;-86
2022/03/14 07:10:56;;;;;;;;;;;;;;;21.58;40.18;102085.22;5092440;28;20044;-86
2022/03/14 07:13:21;;;;;;;;;;;;;;;21.59;40.13;102091.53;5092382;28;19927;-86
2022/03/14 07:15:46;;;;;;;;;;;;;;;21.58;40.02;102101.72;5092612;28;19920;-88
2022/03/14 07:18:11;;;;;;;;;;;;;;;21.59;40.27;102108.84;5092937;28;19972;-89
2022/03/14 07:20:37;;;;;;;;;;;;;;;21.60;40.27;102113.25;5109654;28;19924;-89
2022/03/14 07:23:03;;;;;;;;;;;;;;;21.59;40.21;102105.28;5096962;28;19927;-90
2022/03/14 07:25:29;;;;;;;;;;;;;;;21.60;40.07;102115.19;5097456;28;20302;-86
2022/03/14 07:27:56;;;;;;;;;;;;;;;21.60;40.11;102120.69;5113763;28;19956;-90
2022/03/14 07:30:22;;;;;;;;;;;;;;;21.61;40.10;102136.06;5098210;28;19916;-86
2022/03/14 07:32:48;;;;;;;;;;;;;;;21.60;40.14;102128.94;5096629;28;20390;-85
2022/03/14 07:35:13;;;;;;;;;;;;;;;21.60;40.14;102132.50;5097762;28;19945;-83
2022/03/14 07:37:39;;;;;;;;;;;;;;;21.60;40.11;102135.25;5096196;28;19949;-83
2022/03/14 07:40:06;;;;;;;;;;;;;;;21.60;39.98;102138.00;5096585;28;20537;-83
2022/03/14 07:42:31;;;;;;;;;;;;;;;21.60;39.88;102138.00;5095973;28;19968;-83
2022/03/14 07:44:56;;;;;;;;;;;;;;;21.62;40.18;102145.97;5096084;28;19946;-83
2022/03/14 07:47:23;;;;;;;;;;;;;;;21.62;40.25;102145.97;5095656;28;20287;-82
2022/03/14 07:49:48;;;;;;;;;;;;;;;21.61;40.26;102142.38;5095806;28;19920;-83
2022/03/14 07:52:14;;;;;;;;;;;;;;;21.61;40.22;102147.88;5095682;28;19928;-81
2022/03/14 07:54:39;;;;;;;;;;;;;;;21.62;40.02;102148.72;5113184;28;20288;-83
2022/03/14 07:57:04;;;;;;;;;;;;;;;21.63;40.34;102163.28;5112735;28;20008;-84
2022/03/14 07:59:29;;;;;;;;;;;;;;;21.63;40.00;102150.34;5095709;28;19947;-85
2022/03/14 08:01:55;;;;;;;;;;;;;;;21.63;40.19;102164.09;5095388;28;19938;-81
2022/03/14 08:04:20;;;;;;;;;;;;;;;21.65;40.29;102166.59;5112953;28;19945;-87
2022/03/14 08:06:45;;;;;;;;;;;;;;;21.65;40.40;102164.66;5095938;28;19931;-86
2022/03/14 08:09:11;;;;;;;;;;;;;;;21.65;40.01;102170.16;5097011;28;19933;-87
2022/03/14 08:11:38;;;;;;;;;;;;;;;21.66;40.08;102173.72;5095572;28;19951;-87
2022/03/14 08:14:03;;;;;;;;;;;;;;;21.67;40.09;102178.09;5096933;28;20396;-88
2022/03/14 08:16:29;;;;;;;;;;;;;;;21.67;40.09;102172.59;5096855;28;19942;-90
2022/03/14 08:18:54;;;;;;;;;;;;;;;21.66;40.01;102171.78;5096245;28;19964;-90
2022/03/14 08:21:19;;;;;;;;;;;;;;;21.67;40.38;102173.44;5095595;28;19973;-87
2022/03/14 08:23:47;;;;;;;;;;;;;;;21.69;40.28;102181.41;5096355;28;20018;-92
2022/03/14 08:26:13;;;;;;;;;;;;;;;21.68;40.46;102183.31;5095879;28;19935;-93
2022/03/14 08:28:41;;;;;;;;;;;;;;;21.68;40.36;102191.56;5096210;28;19938;-89
2022/03/14 08:31:06;;;;;;;;;;;;;;;21.71;40.49;102192.94;5112535;28;19930;-91
2022/03/14 08:33:31;;;;;;;;;;;;;;;21.70;40.51;102191.31;5095341;28;19988;-92
2022/03/14 08:36:00;;;;;;;;;;;;;;;21.71;40.39;102198.44;5097645;28;19916;-92
2022/03/14 08:38:26;;;;;;;;;;;;;;;21.72;40.47;102211.06;5095845;28;20000;-93
2022/03/14 08:40:51;;;;;;;;;;;;;;;21.72;40.19;102206.41;5113113;28;19943;-90
2022/03/14 08:43:16;;;;;;;;;;;;;;;21.73;40.54;102223.75;5095884;28;19920;-92
2022/03/14 08:45:43;;;;;;;;;;;;;;;21.73;40.48;102229.25;5113134;28;19921;-93
2022/03/14 08:48:09;;;;;;;;;;;;;;;21.73;40.29;102230.06;5096815;28;20382;-91
2022/03/14 08:50:37;;;;;;;;;;;;;;;21.74;40.42;102239.13;5096999;28;19920;-91
2022/03/14 08:53:03;;;;;;;;;;;;;;;21.75;40.53;102243.53;5096006;28;19923;-87
2022/03/14 08:55:28;;;;;;;;;;;;;;;21.75;40.25;102247.09;5095100;28;19971;-92
2022/03/14 08:57:54;;;;;;;;;;;;;;;21.74;40.48;102245.44;5095628;28;19946;-92
2022/03/14 09:00:19;;;;;;;;;;;;;;;21.75;40.54;102249.03;5095253;28;20318;-92
2022/03/14 09:02:44;;;;;;;;;;;;;;;21.76;40.29;102253.41;5095770;28;20021;-89
2022/03/14 09:05:10;;;;;;;;;;;;;;;21.76;40.15;102253.41;5095379;28;19945;-87
2022/03/14 09:07:35;;;;;;;;;;;;;;;21.76;40.17;102265.25;5112274;28;19943;-92
2022/03/14 09:10:05;;;;;;;;;;;;;;;21.77;40.37;102264.16;5095313;28;20092;-91
2022/03/14 09:12:32;;;;;;;;;;;;;;;21.77;40.55;102277.06;5095327;28;19946;-92
2022/03/14 09:14:58;;;;;;;;;;;;;;;21.78;40.53;102275.97;5094832;28;20009;-91
2022/03/14 09:17:25;;;;;;;;;;;;;;;21.78;40.14;102270.47;5095062;28;19999;-91
2022/03/14 09:19:50;;;;;;;;;;;;;;;21.79;40.39;102283.09;5095394;28;20454;-92
2022/03/14 09:22:18;;;;;;;;;;;;;;;21.80;40.11;102284.78;5095017;28;19976;-92
2022/03/14 09:24:46;;;;;;;;;;;;;;;21.79;40.32;102283.91;5095236;28;19939;-91
2022/03/14 09:27:11;;;;;;;;;;;;;;;21.79;40.07;102283.91;5096108;28;19947;-89
2022/03/14 09:29:36;;;;;;;;;;;;;;;21.80;40.41;102282.03;5096143;28;20044;-92
2022/03/14 09:32:02;;;;;;;;;;;;;;;21.81;40.21;102294.66;5094730;28;19958;-90
2022/03/14 09:34:27;;;;;;;;;;;;;;;21.81;40.22;102294.66;5094501;28;19973;-87
2022/03/14 09:36:54;;;;;;;;;;;;;;;21.80;40.02;102293.84;5094259;28;19943;-88
2022/03/14 09:39:20;;;;;;;;;;;;;;;21.81;40.14;102286.41;5111671;28;19920;-90
2022/03/14 09:41:48;;;;;;;;;;;;;;;21.82;40.02;102296.28;5094534;28;19953;-91
2022/03/14 09:44:15;;;;;;;;;;;;;;;21.82;40.04;102301.78;5093498;28;19921;-91
2022/03/14 09:46:43;;;;;;;;;;;;;;;21.84;40.29;102305.09;5094530;28;20370;-92
2022/03/14 09:49:09;;;;;;;;;;;;;;;21.82;40.29;102310.03;5095561;28;19917;-91
2022/03/14 09:51:38;;;;;;;;;;;;;;;21.85;40.20;102319.66;5094113;28;20431;-91
2022/03/14 09:54:04;;;;;;;;;;;;;;;21.85;40.01;102331.50;5094551;28;19934;-88
2022/03/14 09:56:30;;;;;;;;;;;;;;;21.85;40.02;102331.50;5094753;28;19936;-92
2022/03/14 09:58:55;;;;;;;;;;;;;;;21.86;40.04;102322.16;5111799;28;20023;-92
2022/03/14 10:01:20;;;;;;;;;;;;;;;21.86;40.12;102324.06;5094041;28;19924;-91
2022/03/14 10:03:46;;;;;;;;;;;;;;;21.86;40.03;102335.91;5094713;28;20404;-90
2022/03/14 10:06:11;;;;;;;;;;;;;;;21.86;39.98;102333.16;5111644;28;19963;-89
2022/03/14 10:08:37;;;;;;;;;;;;;;;21.87;40.06;102344.97;5111207;28;19921;-92
2022/03/14 10:11:02;;;;;;;;;;;;;;;21.87;40.25;102347.72;5095181;28;19927;-91
2022/03/14 10:13:27;;;;;;;;;;;;;;;21.87;39.98;102359.53;5094128;28;19927;-90
2022/03/14 10:15:53;;;;;;;;;;;;;;;21.87;40.24;102353.22;5093745;28;19920;-88
2022/03/14 10:18:18;;;;;;;;;;;;;;;21.87;40.16;102356.78;5094454;28;19947;-94
2022/03/14 10:20:56;;;;;;;;;;;;;;;21.87;39.99;102354.03;5095081;28;19974;-93
2022/03/14 10:23:49;;;;;;;;;;;;;;;21.87;39.86;102358.72;5095468;28;19916;-88
2022/03/14 10:26:16;;;;;;;;;;;;;;;21.87;40.05;102362.28;5093887;28;19934;-90
2022/03/14 10:28:42;;;;;;;;;;;;;;;21.88;40.04;102369.47;5093437;28;19939;-87
2022/03/14 10:31:07;;;;;;;;;;;;;;;21.88;39.98;102372.22;5110336;28;20347;-86
2022/03/14 10:33:33;;;;;;;;;;;;;;;21.89;39.81;102373.84;5094600;28;19920;-86
2022/03/14 10:35:59;;;;;;;;;;;;;;;21.88;40.02;102380.47;5094703;28;19952;-90
2022/03/14 10:38:25;;;;;;;;;;;;;;;21.88;39.70;102385.97;5093173;28;20003;-86
2022/03/14 10:40:51;;;;;;;;;;;;;;;21.89;39.91;102384.03;5094564;28;19916;-87
2022/03/14 10:43:22;;;;;;;;;;;;;;;21.90;39.66;102381.00;5092848;28;19950;-87
2022/03/14 10:45:48;;;;;;;;;;;;;;;21.90;39.63;102391.16;5093993;28;20299;-86
2022/03/14 10:48:13;;;;;;;;;;;;;;;21.90;39.73;102392.03;5109692;28;19923;-89
2022/03/14 10:50:39;;;;;;;;;;;;;;;21.91;39.89;102399.16;5093725;28;19963;-89
2022/03/14 10:53:09;;;;;;;;;;;;;;;21.90;39.96;102394.78;5093132;28;19930;-89
2022/03/14 10:55:35;;;;;;;;;;;;;;;21.91;39.79;102392.84;5093534;28;19948;-89
2022/03/14 10:58:08;;;;;;;;;;;;;;;21.91;39.63;102401.09;5094181;28;19916;-89
2022/03/14 11:00:43;;;;;;;;;;;;;;;21.92;39.94;102394.47;5093191;28;19931;-83
2022/03/14 11:03:08;;;;;;;;;;;;;;;21.91;39.59;102396.41;5109837;28;20019;-88
2022/03/14 11:05:42;;;;;;;;;;;;;;;21.91;39.91;102396.41;5092871;28;20027;-87
2022/03/14 11:08:26;;;;;;;;;;;;;;;21.91;39.82;102407.41;5093261;28;20291;-88
2022/03/14 11:10:51;;;;;;;;;;;;;;;21.91;39.69;102404.66;5092531;28;20283;-87
2022/03/14 11:13:16;;;;;;;;;;;;;;;21.91;39.67;102409.34;5093824;28;20371;-88
2022/03/14 11:15:42;;;;;;;;;;;;;;;21.91;39.41;102412.91;5092517;28;20030;-88
2022/03/14 11:18:07;;;;;;;;;;;;;;;21.92;39.44;102414.53;5092429;28;19961;-88
2022/03/14 11:20:33;;;;;;;;;;;;;;;21.93;39.75;102412.66;5092269;28;19984;-88
2022/03/14 11:22:58;;;;;;;;;;;;;;;21.91;39.67;102412.91;5093024;28;19942;-89
2022/03/14 11:25:23;;;;;;;;;;;;;;;21.91;39.86;102415.66;5093506;28;19973;-88
2022/03/14 11:27:49;;;;;;;;;;;;;;;21.93;39.70;102412.66;5109423;28;19985;-87
2022/03/14 11:30:15;;;;;;;;;;;;;;;21.92;39.69;102417.31;5091917;28;20360;-86
2022/03/14 11:32:41;;;;;;;;;;;;;;;21.92;39.65;102409.03;5093320;28;19916;-87
2022/03/14 11:35:07;;;;;;;;;;;;;;;21.92;39.81;102406.28;5093256;28;19924;-87
2022/03/14 11:37:33;;;;;;;;;;;;;;;21.93;39.50;102407.97;5092040;28;19954;-87
2022/03/14 11:39:59;;;;;;;;;;;;;;;21.94;39.40;102415.09;5092309;28;19965;-88
2022/03/14 11:42:25;;;;;;;;;;;;;;;21.93;39.72;102405.22;5093213;28;19939;-86
2022/03/14 11:44:51;;;;;;;;;;;;;;;21.93;39.39;102416.22;5092130;28;20393;-87
2022/03/14 11:47:19;;;;;;;;;;;;;;;21.94;39.37;102426.09;5093122;28;19920;-87
2022/03/14 11:49:44;;;;;;;;;;;;;;;21.94;39.52;102426.09;5092254;28;20035;-90
2022/03/14 11:52:18;;;;;;;;;;;;;;;21.94;39.42;102434.34;5093523;28;20412;-88
2022/03/14 11:54:51;;;;;;;;;;;;;;;21.94;39.51;102434.34;5093495;28;19916;-92
2022/03/14 11:57:35;;;;;;;;;;;;;;;21.95;39.52;102430.53;5093653;28;20041;-92
2022/03/14 12:00:20;;;;;;;;;;;;;;;21.94;39.59;102431.59;5093358;28;19949;-90
2022/03/14 12:02:46;;;;;;;;;;;;;;;21.95;39.84;102435.22;5093865;28;20003;-90
2022/03/14 12:05:11;;;;;;;;;;;;;;;21.94;39.70;102431.59;5092419;28;19959;-87
2022/03/14 12:07:36;;;;;;;;;;;;;;;21.94;39.36;102423.34;5092327;28;20414;-87
2022/03/14 12:10:22;;;;;;;;;;;;;;;21.94;39.43;102426.09;5112177;28;20274;-86
2022/03/14 12:12:53;;;;;;;;;;;;;;;21.95;39.37;102426.94;5095458;28;19953;-87
2022/03/14 12:15:39;;;;;;;;;;;;;;;21.95;39.45;102430.53;5095284;28;19924;-87
2022/03/14 12:18:23;;;;;;;;;;;;;;;21.94;39.45;102423.34;5095733;28;19955;-87
2022/03/14 12:21:04;;;;;;;;;;;;;;;21.94;39.33;102417.03;5095679;28;19942;-87
2022/03/14 12:23:30;;;;;;;;;;;;;;;21.95;39.26;102422.28;5097121;28;20005;-85
2022/03/14 12:25:57;;;;;;;;;;;;;;;21.95;39.38;102427.78;5112139;28;20389;-85
2022/03/14 12:28:31;;;;;;;;;;;;;;;21.94;39.64;102428.84;5094829;28;20290;-86
2022/03/14 12:31:13;;;;;;;;;;;;;;;21.95;39.29;102424.19;5095090;28;19920;-86